Time;durP1;ratioP1;P1;durP2;ratioP2;P2;SDS_P1;SDS_P2;PMS_P1;PMS_P2;Temp;Humidity;BMP_temperature;BMP_pressure;BME280_temperature;BME280_humidity;BME280_pressure;Samples;Min_cycle;Max_cycle;Signal;HPM_P1;HPM_P2
2022/06/28 00:02:15;;;;;;;;;;;;;;;22.90;64.66;100928.78;7404089;19;1578;-35
2022/06/28 00:04:44;;;;;;;;;;;;;;;22.84;64.41;100924.88;7406394;19;1423;-34
2022/06/28 00:07:12;;;;;;;;;;;;;;;22.77;64.63;100918.38;7406698;19;1572;-34
2022/06/28 00:09:41;;;;;;;;;;;;;;;22.81;64.96;100927.03;7406845;19;1739;-34
2022/06/28 00:12:10;;;;;;;;;;;;;;;22.73;64.74;100932.34;7406420;19;1512;-34
2022/06/28 00:17:21;;;;;;;;;;;;;;;22.73;64.86;100932.34;7408201;19;1753;-34
2022/06/28 00:19:50;;;;;;;;;;;;;;;22.68;64.79;100922.03;7405171;19;1959;-34
2022/06/28 00:22:18;;;;;;;;;;;;;;;22.66;64.83;100909.69;7408268;19;1029;-34
2022/06/28 00:24:46;;;;;;;;;;;;;;;22.66;64.78;100909.69;7406624;19;1476;-34
2022/06/28 00:27:15;;;;;;;;;;;;;;;22.68;64.84;100915.78;7406423;19;1849;-34
2022/06/28 00:29:46;;;;;;;;;;;;;;;22.71;64.70;100915.47;7406039;19;1789;-34
2022/06/28 00:32:15;;;;;;;;;;;;;;;22.70;64.59;100900.28;7405184;19;1571;-34
2022/06/28 00:34:43;;;;;;;;;;;;;;;22.74;65.11;100921.41;7402614;19;1861;-34
2022/06/28 00:37:11;;;;;;;;;;;;;;;22.74;64.63;100901.69;7407086;19;1107;-34
2022/06/28 00:39:40;;;;;;;;;;;;;;;22.70;64.70;100894.91;7406101;19;1513;-34
2022/06/28 00:42:10;;;;;;;;;;;;;;;22.70;64.88;100901.16;7403767;19;1467;-34
2022/06/28 00:44:39;;;;;;;;;;;;;;;22.75;64.77;100906.06;7406742;19;1521;-34
2022/06/28 00:47:10;;;;;;;;;;;;;;;22.70;64.42;100901.16;7405568;19;1998;-34
2022/06/28 00:49:40;;;;;;;;;;;;;;;22.67;64.49;100901.47;7404986;19;1592;-34
2022/06/28 00:52:10;;;;;;;;;;;;;;;22.68;64.49;100905.00;7407597;19;1323;-34
2022/06/28 00:54:38;;;;;;;;;;;;;;;22.67;64.56;100906.84;7402899;19;1861;-34
2022/06/28 00:57:07;;;;;;;;;;;;;;;22.66;64.32;100913.28;7405569;19;1476;-34
2022/06/28 00:59:36;;;;;;;;;;;;;;;22.66;64.54;100907.00;7403903;19;1581;-34
2022/06/28 01:02:04;;;;;;;;;;;;;;;22.65;64.56;100908.88;7404672;19;1548;-34
2022/06/28 01:04:35;;;;;;;;;;;;;;;22.66;64.77;100915.97;7405524;19;2010;-41
2022/06/28 01:07:04;;;;;;;;;;;;;;;22.66;64.51;100907.88;7406342;19;1890;-35
2022/06/28 01:09:32;;;;;;;;;;;;;;;22.65;64.36;100914.25;7403873;19;1867;-35
2022/06/28 01:12:00;;;;;;;;;;;;;;;22.62;64.33;100912.72;7405001;19;1691;-35
2022/06/28 01:14:29;;;;;;;;;;;;;;;22.64;64.58;100916.13;7403175;19;1997;-35
2022/06/28 01:16:57;;;;;;;;;;;;;;;22.64;64.29;100924.19;7404745;19;1825;-34
2022/06/28 01:19:26;;;;;;;;;;;;;;;22.59;64.27;100920.28;7405654;19;1607;-34
2022/06/28 01:21:58;;;;;;;;;;;;;;;22.61;64.34;100911.03;7405439;19;1888;-35
2022/06/28 01:24:30;;;;;;;;;;;;;;;22.62;64.12;100910.03;7403472;19;1978;-35
2022/06/28 01:26:58;;;;;;;;;;;;;;;22.62;64.18;100910.03;7404526;19;1629;-35
2022/06/28 01:29:28;;;;;;;;;;;;;;;22.62;64.21;100915.44;7405011;19;1534;-35
2022/06/28 01:31:56;;;;;;;;;;;;;;;22.63;64.36;100919.78;7404296;19;1803;-35
2022/06/28 01:34:26;;;;;;;;;;;;;;;22.58;64.20;100908.66;7403327;19;1855;-35
2022/06/28 01:36:54;;;;;;;;;;;;;;;22.61;64.55;100904.78;7405008;19;1780;-35
2022/06/28 01:39:22;;;;;;;;;;;;;;;22.55;64.33;100900.03;7404433;19;1571;-34
2022/06/28 01:41:54;;;;;;;;;;;;;;;22.62;64.20;100918.13;7404231;19;1948;-35
2022/06/28 01:44:23;;;;;;;;;;;;;;;22.62;64.01;100915.44;7403540;19;1523;-35
2022/06/28 01:46:51;;;;;;;;;;;;;;;22.66;64.35;100915.97;7403281;19;1690;-35
2022/06/28 01:49:19;;;;;;;;;;;;;;;22.63;64.08;100900.09;7404943;19;1737;-35
2022/06/28 01:51:48;;;;;;;;;;;;;;;22.61;64.14;100902.94;7404050;19;1765;-35
2022/06/28 01:54:17;;;;;;;;;;;;;;;22.61;64.09;100907.50;7402646;19;1919;-34
2022/06/28 01:56:45;;;;;;;;;;;;;;;22.67;64.25;100925.72;7403991;19;1687;-34
2022/06/28 01:59:16;;;;;;;;;;;;;;;22.63;63.97;100921.66;7403201;19;1436;-35
2022/06/28 02:01:45;;;;;;;;;;;;;;;22.59;63.83;100910.34;7396806;19;3300;-58
2022/06/28 02:04:20;;;;;;;;;;;;;;;22.59;63.83;100917.56;7403565;19;1543;-58
2022/06/28 02:06:48;;;;;;;;;;;;;;;22.58;63.90;100908.66;7406582;19;1362;-58
2022/06/28 02:09:17;;;;;;;;;;;;;;;22.59;63.82;100907.63;7405082;19;1726;-58
2022/06/28 02:11:45;;;;;;;;;;;;;;;22.62;63.83;100910.03;7405779;19;1594;-58
2022/06/28 02:14:16;;;;;;;;;;;;;;;22.59;63.57;100902.25;7404559;19;1855;-58
2022/06/28 02:16:45;;;;;;;;;;;;;;;22.56;64.02;100907.97;7406683;19;1646;-58
2022/06/28 02:19:14;;;;;;;;;;;;;;;22.54;63.94;100896.50;7405819;19;1523;-59
2022/06/28 02:21:43;;;;;;;;;;;;;;;22.53;63.75;100910.97;7405465;19;1116;-58
2022/06/28 02:24:12;;;;;;;;;;;;;;;22.54;63.65;100919.88;7405007;19;1578;-58
2022/06/28 02:26:41;;;;;;;;;;;;;;;22.54;63.59;100914.50;7404677;19;1429;-58
2022/06/28 02:29:10;;;;;;;;;;;;;;;22.53;63.63;100918.19;7406891;19;1565;-58
2022/06/28 02:31:41;;;;;;;;;;;;;;;22.51;63.96;100926.44;7406565;19;1532;-58
2022/06/28 02:40:21;;;;;;;;;;;;;;;22.53;63.52;100916.34;7406144;19;1873;-58
2022/06/28 02:42:19;;;;;;;;;;;;;;;22.53;63.81;100932.50;7405408;19;1614;-58
2022/06/28 02:44:47;;;;;;;;;;;;;;;22.51;63.88;100931.81;7405590;19;1574;-58
2022/06/28 02:47:18;;;;;;;;;;;;;;;22.53;63.88;100947.84;7405058;19;1516;-58
2022/06/28 02:49:46;;;;;;;;;;;;;;;22.58;63.45;100935.59;7404406;19;1500;-57
2022/06/28 02:52:15;;;;;;;;;;;;;;;22.68;63.79;100943.63;7405369;19;1166;-58
2022/06/28 02:54:43;;;;;;;;;;;;;;;22.74;64.04;100939.41;7403177;19;1865;-59
2022/06/28 02:57:12;;;;;;;;;;;;;;;22.77;63.63;100934.56;7405082;19;1345;-58
2022/06/28 02:59:40;;;;;;;;;;;;;;;22.79;63.37;100937.13;7404414;19;1626;-58
2022/06/28 03:02:08;;;;;;;;;;;;;;;22.74;63.62;100934.91;7400804;19;1579;-58
2022/06/28 03:04:39;;;;;;;;;;;;;;;22.75;63.95;100941.13;7403295;19;1649;-58
2022/06/28 03:07:08;;;;;;;;;;;;;;;22.72;64.03;100944.13;7406310;19;961;-58
2022/06/28 03:09:36;;;;;;;;;;;;;;;22.76;64.04;100948.19;7402946;19;1716;-58
2022/06/28 03:12:06;;;;;;;;;;;;;;;22.75;64.09;100958.16;7404461;19;1341;-59
2022/06/28 03:14:34;;;;;;;;;;;;;;;22.75;64.45;100955.44;7402633;19;1862;-58
2022/06/28 03:17:03;;;;;;;;;;;;;;;22.78;64.46;100957.84;7404357;19;1543;-58
2022/06/28 03:19:31;;;;;;;;;;;;;;;22.78;64.42;100940.81;7404928;19;1520;-58
2022/06/28 03:22:02;;;;;;;;;;;;;;;22.77;64.56;100950.75;7404804;19;1610;-58
2022/06/28 03:24:30;;;;;;;;;;;;;;;22.79;64.44;100953.28;7403390;19;1602;-59
2022/06/28 03:26:59;;;;;;;;;;;;;;;22.78;64.67;100955.16;7404096;19;1510;-58
2022/06/28 03:29:27;;;;;;;;;;;;;;;22.77;64.46;100956.13;7403093;19;1690;-58
2022/06/28 03:31:55;;;;;;;;;;;;;;;22.76;64.55;100951.75;7403952;19;1535;-58
2022/06/28 03:34:24;;;;;;;;;;;;;;;22.77;64.21;100944.50;7403298;19;1849;-58
2022/06/28 03:36:53;;;;;;;;;;;;;;;22.78;64.46;100946.19;7412837;19;989;-58
2022/06/28 03:39:24;;;;;;;;;;;;;;;22.78;64.46;100956.97;7409594;19;1729;-59
2022/06/28 03:41:52;;;;;;;;;;;;;;;22.80;64.50;100953.16;7410910;19;1546;-58
2022/06/28 03:44:20;;;;;;;;;;;;;;;22.79;64.45;100948.75;7410572;19;1536;-58
2022/06/28 03:46:49;;;;;;;;;;;;;;;22.78;64.86;100948.88;7411506;19;1539;-58
2022/06/28 03:49:17;;;;;;;;;;;;;;;22.83;65.10;100958.22;7410504;19;1559;-56
2022/06/28 03:51:45;;;;;;;;;;;;;;;22.92;64.95;100944.78;7410551;19;1618;-62
2022/06/28 03:54:14;;;;;;;;;;;;;;;22.93;64.99;100949.19;7406486;19;1867;-57
2022/06/28 03:56:45;;;;;;;;;;;;;;;22.90;65.10;100944.97;7409388;19;1412;-58
2022/06/28 03:59:13;;;;;;;;;;;;;;;22.93;65.35;100960.81;7411013;19;1515;-58
2022/06/28 04:01:42;;;;;;;;;;;;;;;22.97;66.10;100951.41;7408088;19;1495;-58
2022/06/28 04:04:10;;;;;;;;;;;;;;;22.93;65.33;100935.69;7410827;19;1604;-59
2022/06/28 04:06:38;;;;;;;;;;;;;;;23.00;65.24;100952.97;7410627;19;1107;-63
2022/06/28 04:09:07;;;;;;;;;;;;;;;22.97;66.02;100934.38;7407669;19;1276;-58
2022/06/28 04:11:35;;;;;;;;;;;;;;;22.93;65.22;100952.72;7409013;19;1392;-61
2022/06/28 04:14:06;;;;;;;;;;;;;;;22.89;65.09;100937.88;7407005;19;1864;-59
2022/06/28 04:16:35;;;;;;;;;;;;;;;22.94;64.76;100930.16;7408704;19;1261;-56
2022/06/28 04:19:03;;;;;;;;;;;;;;;22.97;65.36;100937.91;7407823;19;1365;-57
2022/06/28 04:21:31;;;;;;;;;;;;;;;22.93;64.95;100936.53;7409459;19;1305;-59
2022/06/28 04:24:00;;;;;;;;;;;;;;;22.91;65.00;100932.31;7409513;19;1385;-59
2022/06/28 04:26:28;;;;;;;;;;;;;;;22.88;64.82;100941.59;7408999;19;1352;-58
2022/06/28 04:28:56;;;;;;;;;;;;;;;22.85;64.57;100947.28;7408928;19;1401;-58
2022/06/28 04:31:27;;;;;;;;;;;;;;;22.76;65.59;100942.81;7406317;19;1275;-57
2022/06/28 04:33:56;;;;;;;;;;;;;;;22.72;65.10;100938.72;7404532;19;1853;-57
2022/06/28 04:36:26;;;;;;;;;;;;;;;22.67;64.75;100954.53;7404124;19;1416;-58
2022/06/28 04:38:54;;;;;;;;;;;;;;;22.61;65.35;100956.84;7402253;19;1449;-59
2022/06/28 04:41:24;;;;;;;;;;;;;;;22.54;65.13;100955.78;7405611;19;1341;-58
2022/06/28 04:43:53;;;;;;;;;;;;;;;22.57;65.39;100944.69;7404230;19;1258;-58
2022/06/28 04:46:21;;;;;;;;;;;;;;;22.63;65.43;100962.09;7402886;19;1203;-59
2022/06/28 04:48:52;;;;;;;;;;;;;;;22.57;65.22;100954.63;7405675;19;1349;-58
2022/06/28 04:51:21;;;;;;;;;;;;;;;22.56;64.93;100953.78;7405170;19;1602;-59
2022/06/28 04:53:50;;;;;;;;;;;;;;;22.61;65.25;100951.44;7406819;19;1671;-58
2022/06/28 04:56:18;;;;;;;;;;;;;;;22.59;65.33;100966.94;7402915;19;1836;-58
2022/06/28 04:58:47;;;;;;;;;;;;;;;22.62;65.00;100969.34;7407786;19;1246;-58
2022/06/28 05:01:15;;;;;;;;;;;;;;;22.73;65.05;100976.31;7407714;19;1462;-58
2022/06/28 05:03:44;;;;;;;;;;;;;;;22.62;65.39;100974.72;7407171;19;1871;-58
2022/06/28 05:06:14;;;;;;;;;;;;;;;22.62;65.14;100971.16;7408534;19;1350;-58
2022/06/28 05:08:43;;;;;;;;;;;;;;;22.70;65.25;100955.09;7407879;19;1881;-59
2022/06/28 05:11:11;;;;;;;;;;;;;;;22.81;65.26;100978.25;7408045;19;1340;-57
2022/06/28 05:13:39;;;;;;;;;;;;;;;22.76;65.47;100946.38;7407654;19;1451;-58
2022/06/28 05:16:08;;;;;;;;;;;;;;;22.59;65.88;100958.84;7406806;19;1855;-57
2022/06/28 05:18:36;;;;;;;;;;;;;;;22.47;66.45;100962.78;7407098;19;1478;-58
2022/06/28 05:21:04;;;;;;;;;;;;;;;22.52;65.98;100965.88;7407616;19;1639;-57
2022/06/28 05:23:37;;;;;;;;;;;;;;;22.48;66.38;100956.38;7407605;19;1436;-57
2022/06/28 05:26:06;;;;;;;;;;;;;;;22.63;65.78;100976.41;7407013;19;1329;-57
2022/06/28 05:28:34;;;;;;;;;;;;;;;22.72;65.78;100974.66;7408250;19;1368;-57
2022/06/28 05:31:03;;;;;;;;;;;;;;;22.80;65.51;100973.84;7406850;19;1413;-59
2022/06/28 05:33:31;;;;;;;;;;;;;;;22.73;66.18;100967.41;7405925;19;1451;-59
2022/06/28 05:35:59;;;;;;;;;;;;;;;22.86;66.21;100977.78;7404302;19;1876;-57
2022/06/28 05:38:27;;;;;;;;;;;;;;;22.96;65.71;100975.81;7403155;19;1488;-58
2022/06/28 05:40:58;;;;;;;;;;;;;;;22.95;65.75;100975.00;7407298;19;1282;-58
2022/06/28 05:43:27;;;;;;;;;;;;;;;22.98;65.73;100974.69;7405392;19;1356;-58
2022/06/28 05:45:55;;;;;;;;;;;;;;;23.00;65.71;100988.03;7407275;19;1155;-58
2022/06/28 05:48:23;;;;;;;;;;;;;;;23.12;65.36;100983.22;7404018;19;1641;-57
2022/06/28 05:50:52;;;;;;;;;;;;;;;23.20;65.29;100978.75;7404119;19;1410;-57
2022/06/28 05:53:20;;;;;;;;;;;;;;;23.30;65.29;100985.88;7406045;19;1539;-57
2022/06/28 05:55:48;;;;;;;;;;;;;;;23.28;65.60;100985.19;7405986;19;1866;-58
2022/06/28 05:58:19;;;;;;;;;;;;;;;23.23;65.99;100982.97;7406207;19;1266;-59
2022/06/28 06:00:47;;;;;;;;;;;;;;;23.22;66.42;100979.44;7403779;19;1384;-57
2022/06/28 06:03:16;;;;;;;;;;;;;;;23.26;66.37;100973.72;7405610;19;1547;-58
2022/06/28 06:05:44;;;;;;;;;;;;;;;23.36;66.82;100983.41;7405589;19;1433;-58
2022/06/28 06:08:12;;;;;;;;;;;;;;;23.43;66.53;100975.50;7403687;19;1347;-58
2022/06/28 06:10:41;;;;;;;;;;;;;;;23.51;67.26;100970.16;7406293;19;1762;-59
2022/06/28 06:13:09;;;;;;;;;;;;;;;23.47;66.59;100994.94;7404200;19;1348;-58
2022/06/28 06:15:40;;;;;;;;;;;;;;;23.46;65.94;100979.72;7404764;19;1846;-58
2022/06/28 06:18:09;;;;;;;;;;;;;;;23.49;67.11;100976.72;7405508;19;1475;-58
2022/06/28 06:20:37;;;;;;;;;;;;;;;23.40;66.80;100990.19;7403717;19;1675;-57
2022/06/28 06:23:05;;;;;;;;;;;;;;;23.41;67.00;100989.16;7402565;19;1258;-58
2022/06/28 06:25:34;;;;;;;;;;;;;;;22.64;67.66;101002.38;7405122;19;1322;-58
2022/06/28 06:28:02;;;;;;;;;;;;;;;21.59;67.40;100994.72;7406790;19;1394;-58
2022/06/28 06:30:31;;;;;;;;;;;;;;;20.91;66.56;101003.75;7403432;19;1284;-58
2022/06/28 06:33:02;;;;;;;;;;;;;;;20.62;65.62;100998.34;7405799;19;1356;-59
2022/06/28 06:35:31;;;;;;;;;;;;;;;21.33;64.72;100987.25;7403140;19;1860;-57
2022/06/28 06:38:00;;;;;;;;;;;;;;;22.20;63.35;101007.59;7406671;19;1234;-60
2022/06/28 06:40:28;;;;;;;;;;;;;;;22.67;62.91;100986.88;7405842;19;1595;-57
2022/06/28 06:42:57;;;;;;;;;;;;;;;22.98;62.03;100998.97;7404444;19;1218;-56
2022/06/28 06:45:26;;;;;;;;;;;;;;;23.12;61.87;100997.59;7404838;19;1313;-57
2022/06/28 06:47:54;;;;;;;;;;;;;;;23.32;61.51;100995.53;7404246;19;1290;-57
2022/06/28 06:50:25;;;;;;;;;;;;;;;23.36;61.40;100983.41;7403926;19;1321;-57
2022/06/28 06:52:53;;;;;;;;;;;;;;;23.40;61.88;100994.75;7405281;19;1305;-59
2022/06/28 06:55:21;;;;;;;;;;;;;;;23.32;62.25;101000.09;7403272;19;1862;-57
2022/06/28 06:57:50;;;;;;;;;;;;;;;23.37;62.54;101006.69;7404337;19;1321;-56
2022/06/28 07:00:19;;;;;;;;;;;;;;;23.35;62.69;101000.59;7404742;19;1333;-57
2022/06/28 07:02:47;;;;;;;;;;;;;;;23.29;63.42;101001.22;7403087;19;1602;-56
2022/06/28 07:05:15;;;;;;;;;;;;;;;23.32;63.26;100987.44;7404276;19;1555;-58
2022/06/28 07:07:46;;;;;;;;;;;;;;;23.34;63.01;100984.59;7404691;19;1107;-58
2022/06/28 07:10:15;;;;;;;;;;;;;;;23.44;63.29;101001.50;7403679;19;1776;-66
2022/06/28 07:12:43;;;;;;;;;;;;;;;23.40;63.57;100990.19;7401557;19;1461;-55
2022/06/28 07:15:12;;;;;;;;;;;;;;;23.38;63.62;100989.50;7404708;19;1878;-59
2022/06/28 07:17:40;;;;;;;;;;;;;;;23.37;64.21;100995.03;7400973;19;1351;-58
2022/06/28 07:20:09;;;;;;;;;;;;;;;23.37;64.21;100985.09;7402269;19;1327;-58
2022/06/28 07:22:40;;;;;;;;;;;;;;;23.42;63.78;100996.28;7404506;19;1393;-58
2022/06/28 07:25:13;;;;;;;;;;;;;;;23.37;64.20;100993.19;7401862;19;1453;-58
2022/06/28 07:27:41;;;;;;;;;;;;;;;23.32;64.57;100992.84;7401630;19;1802;-58
2022/06/28 07:30:10;;;;;;;;;;;;;;;23.34;64.35;100990.81;7402521;19;1456;-60
2022/06/28 07:32:39;;;;;;;;;;;;;;;23.29;64.26;100986.91;7403018;19;1646;-55
2022/06/28 07:35:08;;;;;;;;;;;;;;;23.32;64.25;101009.03;7402629;19;1846;-56
2022/06/28 07:37:37;;;;;;;;;;;;;;;23.33;64.83;101010.69;7404732;19;1396;-55
2022/06/28 07:40:06;;;;;;;;;;;;;;;23.28;64.96;100998.69;7402390;19;1311;-62
2022/06/28 07:42:37;;;;;;;;;;;;;;;23.32;65.24;100997.41;7403867;19;1367;-60
2022/06/28 07:45:06;;;;;;;;;;;;;;;23.35;65.15;101011.38;7403666;19;1556;-60
2022/06/28 07:47:34;;;;;;;;;;;;;;;23.36;64.72;101005.00;7403468;19;1372;-59
2022/06/28 07:52:43;;;;;;;;;;;;;;;23.42;64.91;101014.31;7404855;19;1475;-61
2022/06/28 07:55:13;;;;;;;;;;;;;;;23.49;65.03;101014.53;7400968;19;1849;-60
2022/06/28 07:57:44;;;;;;;;;;;;;;;23.42;65.02;101009.75;7403773;19;1617;-57
2022/06/28 08:00:13;;;;;;;;;;;;;;;23.40;65.21;101011.78;7403515;19;1201;-58
2022/06/28 08:02:41;;;;;;;;;;;;;;;23.54;65.06;101017.59;7401020;19;1684;-56
2022/06/28 08:05:10;;;;;;;;;;;;;;;23.36;65.01;101025.75;7402229;19;1373;-57
2022/06/28 08:07:38;;;;;;;;;;;;;;;23.32;65.34;101029.78;7402544;19;1515;-56
2022/06/28 08:10:08;;;;;;;;;;;;;;;23.30;65.22;101019.13;7402476;19;1733;-57
2022/06/28 08:12:36;;;;;;;;;;;;;;;23.29;65.43;101019.28;7403380;19;1354;-55
2022/06/28 08:15:08;;;;;;;;;;;;;;;23.28;65.37;101020.28;7403065;19;1861;-57
2022/06/28 08:17:36;;;;;;;;;;;;;;;23.26;65.46;101008.78;7401970;19;1363;-57
2022/06/28 08:20:05;;;;;;;;;;;;;;;23.27;65.64;101016.72;7401594;19;1556;-58
2022/06/28 08:22:33;;;;;;;;;;;;;;;23.26;65.60;101015.06;7406666;19;1400;-55
2022/06/28 08:25:02;;;;;;;;;;;;;;;23.25;65.60;101012.50;7408799;19;1396;-58
2022/06/28 08:27:31;;;;;;;;;;;;;;;23.25;65.57;101002.56;7408058;19;1384;-57
2022/06/28 08:29:59;;;;;;;;;;;;;;;23.29;66.15;101024.69;7407786;19;1530;-56
2022/06/28 08:32:30;;;;;;;;;;;;;;;23.29;65.69;101020.13;7407578;19;1524;-55
2022/06/28 08:34:58;;;;;;;;;;;;;;;23.27;65.45;101024.81;7408407;19;1313;-57
2022/06/28 08:37:27;;;;;;;;;;;;;;;23.28;65.75;101017.56;7407821;19;1849;-55
2022/06/28 08:39:55;;;;;;;;;;;;;;;23.24;65.87;100998.19;7409062;19;1702;-56
2022/06/28 08:42:27;;;;;;;;;;;;;;;23.25;65.63;101013.34;7407399;19;1519;-58
2022/06/28 08:44:56;;;;;;;;;;;;;;;23.26;65.53;101009.66;7409282;19;1604;-55
2022/06/28 08:47:24;;;;;;;;;;;;;;;23.22;65.74;101014.50;7407415;19;1412;-55
2022/06/28 08:49:57;;;;;;;;;;;;;;;23.27;65.93;101013.19;7408837;19;1674;-57
2022/06/28 08:52:25;;;;;;;;;;;;;;;23.23;65.81;101009.97;7409106;19;1476;-55
2022/06/28 08:54:54;;;;;;;;;;;;;;;23.22;65.47;101019.06;7407190;19;1657;-57
2022/06/28 08:57:23;;;;;;;;;;;;;;;23.22;65.62;101025.31;7405298;19;1855;-57
2022/06/28 08:59:52;;;;;;;;;;;;;;;23.22;65.53;101014.50;7406094;19;1364;-58
2022/06/28 09:02:20;;;;;;;;;;;;;;;23.25;66.01;101021.44;7404781;19;1533;-56
2022/06/28 09:04:53;;;;;;;;;;;;;;;23.33;65.98;101010.69;7407182;19;1342;-55
2022/06/28 09:07:24;;;;;;;;;;;;;;;23.32;65.82;101005.50;7409412;19;1462;-57
2022/06/28 09:09:53;;;;;;;;;;;;;;;23.27;66.03;101016.72;7407320;19;1453;-56
2022/06/28 09:12:22;;;;;;;;;;;;;;;23.28;66.01;101007.66;7408634;19;1454;-57
2022/06/28 09:14:50;;;;;;;;;;;;;;;23.24;65.92;101006.28;7407949;19;1654;-55
2022/06/28 09:17:20;;;;;;;;;;;;;;;23.25;66.13;101012.50;7404905;19;1847;-55
2022/06/28 09:19:49;;;;;;;;;;;;;;;23.25;66.07;100991.75;7408291;19;1532;-55
2022/06/28 09:22:33;;;;;;;;;;;;;;;23.23;66.17;100996.47;7408974;19;1354;-55
2022/06/28 09:25:02;;;;;;;;;;;;;;;23.22;65.93;100997.50;7408760;19;1604;-57
2022/06/28 09:27:31;;;;;;;;;;;;;;;23.24;66.06;100990.09;7407684;19;2060;-55
2022/06/28 09:30:00;;;;;;;;;;;;;;;23.23;65.89;100991.06;7406160;19;1760;-55
2022/06/28 09:32:29;;;;;;;;;;;;;;;23.21;65.81;100977.72;7406201;19;1329;-57
2022/06/28 09:34:59;;;;;;;;;;;;;;;23.29;66.30;100993.13;7407820;19;1384;-58
2022/06/28 09:37:37;;;;;;;;;;;;;;;23.32;65.98;100997.41;7407203;19;1865;-56
2022/06/28 09:40:13;;;;;;;;;;;;;;;23.35;66.36;101002.44;7406814;19;1496;-59
2022/06/28 09:42:41;;;;;;;;;;;;;;;23.40;66.36;100987.47;7406988;19;1663;-56
2022/06/28 09:45:10;;;;;;;;;;;;;;;23.42;65.93;100992.72;7406368;19;1440;-58
2022/06/28 09:47:43;;;;;;;;;;;;;;;23.50;66.66;101006.28;7407158;19;1269;-60
2022/06/28 09:50:13;;;;;;;;;;;;;;;23.42;66.60;101004.38;7406117;19;1330;-55
2022/06/28 09:52:46;;;;;;;;;;;;;;;23.44;66.69;101006.91;7407327;19;1586;-56
2022/06/28 09:55:16;;;;;;;;;;;;;;;23.48;66.12;101018.25;7406475;19;1673;-55
2022/06/28 09:57:44;;;;;;;;;;;;;;;23.47;65.88;101001.19;7404819;19;1845;-58
2022/06/28 10:00:14;;;;;;;;;;;;;;;23.43;67.41;101014.13;7407320;19;1344;-56
2022/06/28 10:02:42;;;;;;;;;;;;;;;23.49;66.63;101009.13;7403713;19;1504;-62
2022/06/28 10:05:12;;;;;;;;;;;;;;;23.48;67.10;101007.44;7406707;19;1724;-59
2022/06/28 10:07:40;;;;;;;;;;;;;;;23.58;67.54;101009.00;7406307;19;1674;-59
2022/06/28 10:10:12;;;;;;;;;;;;;;;23.58;67.40;101011.72;7404496;19;1468;-57
2022/06/28 10:15:22;;;;;;;;;;;;;;;23.41;67.64;101018.84;7406576;19;1342;-55
2022/06/28 10:17:55;;;;;;;;;;;;;;;23.40;67.99;101011.78;7402605;19;1851;-57
2022/06/28 10:20:25;;;;;;;;;;;;;;;23.29;67.87;101008.50;7406074;19;1662;-58
2022/06/28 10:22:53;;;;;;;;;;;;;;;23.28;68.43;101002.25;7404755;19;1800;-59
2022/06/28 10:25:24;;;;;;;;;;;;;;;23.30;68.03;101010.16;7406242;19;1621;-58
2022/06/28 10:27:53;;;;;;;;;;;;;;;23.27;68.15;101013.19;7404939;19;1637;-58
2022/06/28 10:30:24;;;;;;;;;;;;;;;23.27;67.92;101010.50;7402318;19;1468;-57
2022/06/28 10:32:53;;;;;;;;;;;;;;;23.27;68.07;101008.63;7402999;19;1643;-56
2022/06/28 10:35:36;;;;;;;;;;;;;;;23.35;67.80;101005.16;7402813;19;1689;-63
2022/06/28 10:38:23;;;;;;;;;;;;;;;23.36;68.15;100999.59;7400872;19;1870;-67
2022/06/28 10:40:54;;;;;;;;;;;;;;;23.42;67.88;100998.97;7402864;19;1539;-54
2022/06/28 10:43:37;;;;;;;;;;;;;;;23.39;67.46;100993.88;7406415;19;1528;-58
2022/06/28 10:46:10;;;;;;;;;;;;;;;23.33;67.72;100978.31;7403611;19;1547;-59
2022/06/28 10:48:53;;;;;;;;;;;;;;;23.36;67.92;100967.22;7404912;19;1607;-58
2022/06/28 10:51:21;;;;;;;;;;;;;;;23.48;68.44;100969.66;7404917;19;1515;-57
2022/06/28 10:54:04;;;;;;;;;;;;;;;23.44;67.68;100988.03;7402816;19;1665;-61
2022/06/28 10:56:37;;;;;;;;;;;;;;;23.39;67.49;100976.84;7403547;19;1845;-55
2022/06/28 10:59:07;;;;;;;;;;;;;;;23.38;67.55;100985.97;7405177;19;1570;-56
2022/06/28 11:01:50;;;;;;;;;;;;;;;23.29;67.52;100968.84;7404685;19;1551;-60
2022/06/28 11:04:24;;;;;;;;;;;;;;;23.25;67.44;100967.47;7405167;19;1436;-61
2022/06/28 11:06:56;;;;;;;;;;;;;;;23.22;67.95;100967.81;7403324;19;1436;-55
2022/06/28 11:09:31;;;;;;;;;;;;;;;23.21;68.39;100971.50;7402992;19;1772;-59
2022/06/28 11:12:14;;;;;;;;;;;;;;;23.22;68.48;100962.41;7404116;19;1436;-54
2022/06/28 11:14:54;;;;;;;;;;;;;;;23.27;68.12;100968.16;7402681;19;1742;-55
2022/06/28 11:17:23;;;;;;;;;;;;;;;23.26;68.00;100957.53;7402950;19;1866;-55
2022/06/28 11:19:55;;;;;;;;;;;;;;;23.22;67.95;100965.13;7404222;19;1456;-55
2022/06/28 11:22:24;;;;;;;;;;;;;;;23.20;68.38;100967.13;7404354;19;1462;-55
2022/06/28 11:24:53;;;;;;;;;;;;;;;23.17;68.58;100956.63;7404752;19;1563;-55
2022/06/28 11:27:22;;;;;;;;;;;;;;;23.18;68.47;100979.94;7401572;19;1752;-62
2022/06/28 11:29:51;;;;;;;;;;;;;;;23.21;68.36;100971.50;7399893;19;1736;-64
2022/06/28 11:32:21;;;;;;;;;;;;;;;23.23;68.34;100961.41;7403387;19;1388;-57
2022/06/28 11:34:56;;;;;;;;;;;;;;;23.21;68.24;100968.81;7403307;19;1463;-64
2022/06/28 11:37:25;;;;;;;;;;;;;;;23.22;67.82;100965.94;7404051;19;1841;-64
2022/06/28 11:39:54;;;;;;;;;;;;;;;23.28;68.13;100958.22;7402668;19;1471;-57
2022/06/28 11:42:25;;;;;;;;;;;;;;;23.21;67.95;100958.00;7403010;19;1463;-66
2022/06/28 11:44:54;;;;;;;;;;;;;;;23.26;68.70;100962.91;7401098;19;1757;-56
2022/06/28 11:47:23;;;;;;;;;;;;;;;23.21;68.47;100945.34;7401640;19;1396;-56
2022/06/28 11:50:09;;;;;;;;;;;;;;;23.23;68.27;100939.81;7400914;19;1793;-64
2022/06/28 11:52:38;;;;;;;;;;;;;;;23.22;68.11;100949.75;7403300;19;1424;-63
2022/06/28 11:55:06;;;;;;;;;;;;;;;23.26;68.12;100950.28;7402511;19;1393;-56
2022/06/28 11:57:39;;;;;;;;;;;;;;;23.27;68.07;100941.19;7408629;19;1869;-62
2022/06/28 12:00:09;;;;;;;;;;;;;;;23.27;67.87;100927.69;7409544;19;1372;-57
2022/06/28 12:02:41;;;;;;;;;;;;;;;23.29;67.83;100922.97;7406906;19;1463;-56
2022/06/28 12:05:10;;;;;;;;;;;;;;;23.25;68.25;100929.69;7409370;19;1462;-56
2022/06/28 12:07:39;;;;;;;;;;;;;;;23.24;68.66;100933.44;7410289;19;1132;-62
2022/06/28 12:10:12;;;;;;;;;;;;;;;23.26;69.06;100931.41;7409124;19;1787;-62
2022/06/28 12:12:46;;;;;;;;;;;;;;;23.25;68.86;100921.59;7410024;19;1357;-57
2022/06/28 12:15:14;;;;;;;;;;;;;;;23.26;68.53;100917.06;7410522;19;1180;-56
2022/06/28 12:17:47;;;;;;;;;;;;;;;23.28;68.40;100937.50;7406611;19;1867;-56
2022/06/28 12:20:16;;;;;;;;;;;;;;;23.28;68.21;100921.31;7409621;19;1261;-60
2022/06/28 12:22:44;;;;;;;;;;;;;;;23.31;67.72;100923.66;7409738;19;1535;-56
2022/06/28 12:25:13;;;;;;;;;;;;;;;23.31;67.80;100922.81;7406550;19;1593;-56
2022/06/28 12:27:41;;;;;;;;;;;;;;;23.31;67.65;100915.56;7407163;19;1550;-56
2022/06/28 12:30:12;;;;;;;;;;;;;;;23.33;67.62;100908.16;7408826;19;1539;-56
2022/06/28 12:32:41;;;;;;;;;;;;;;;23.31;68.06;100899.38;7408078;19;1713;-55
2022/06/28 12:35:10;;;;;;;;;;;;;;;23.36;67.69;100913.25;7406702;19;1685;-56
2022/06/28 12:37:39;;;;;;;;;;;;;;;23.35;68.14;100902.59;7407955;19;1866;-59
2022/06/28 12:40:09;;;;;;;;;;;;;;;23.37;67.62;100895.19;7407335;19;1356;-56
2022/06/28 12:42:38;;;;;;;;;;;;;;;23.37;67.25;100887.94;7404881;19;1405;-57
2022/06/28 12:45:07;;;;;;;;;;;;;;;23.40;67.30;100889.50;7406298;19;1530;-57
2022/06/28 12:47:40;;;;;;;;;;;;;;;23.42;67.19;100888.31;7407760;19;1567;-63
2022/06/28 12:50:09;;;;;;;;;;;;;;;23.50;68.96;100881.28;7409219;19;1554;-60
2022/06/28 12:52:39;;;;;;;;;;;;;;;23.68;68.62;100900.91;7409584;19;1611;-55
2022/06/28 12:55:08;;;;;;;;;;;;;;;23.55;67.98;100878.91;7402015;19;1501;-59
2022/06/28 12:57:37;;;;;;;;;;;;;;;23.47;68.14;100879.72;7404888;19;1865;-54
2022/06/28 13:00:07;;;;;;;;;;;;;;;23.37;69.12;100892.50;7406609;19;1416;-59
2022/06/28 13:02:38;;;;;;;;;;;;;;;23.37;69.09;100882.53;7404568;19;1456;-54
2022/06/28 13:05:07;;;;;;;;;;;;;;;23.31;68.59;100885.88;7407449;19;1521;-60
2022/06/28 13:07:35;;;;;;;;;;;;;;;23.34;68.94;100879.34;7406614;19;1309;-53
2022/06/28 13:10:04;;;;;;;;;;;;;;;23.38;68.26;100867.22;7408171;19;1761;-53
2022/06/28 13:12:32;;;;;;;;;;;;;;;23.39;68.70;100887.78;7409009;19;1610;-53
2022/06/28 13:15:00;;;;;;;;;;;;;;;23.41;68.57;100878.50;7403530;19;1773;-52